createdAt,value
2023-05-14T00:00:04.793Z,241.91
2023-05-14T00:01:04.802Z,242.29
2023-05-14T00:02:04.855Z,242.62
2023-05-14T00:03:04.917Z,242.63
2023-05-14T00:04:04.876Z,240.82
2023-05-14T00:05:04.880Z,241.53
2023-05-14T00:06:04.782Z,239.25
2023-05-14T00:07:04.797Z,245.26
2023-05-14T00:08:04.821Z,243.36
2023-05-14T00:09:04.779Z,242.81
2023-05-14T00:10:04.737Z,241.91
2023-05-14T00:11:04.759Z,242.28
2023-05-14T00:12:04.782Z,240.70
2023-05-14T00:13:04.781Z,239.54
2023-05-14T00:14:04.730Z,244.30
2023-05-14T00:15:04.790Z,242.00
2023-05-14T00:16:04.903Z,240.57
2023-05-14T00:17:04.822Z,242.20
2023-05-14T00:18:04.817Z,242.37
2023-05-14T00:19:04.788Z,244.41
2023-05-14T00:20:04.762Z,241.77
2023-05-14T00:21:04.731Z,240.81
2023-05-14T00:22:04.739Z,241.30
2023-05-14T00:23:04.738Z,238.90
2023-05-14T00:24:04.751Z,241.62
2023-05-14T00:25:04.753Z,243.04
2023-05-14T00:26:04.691Z,242.13
2023-05-14T00:27:04.773Z,242.64
2023-05-14T00:28:04.703Z,241.56
2023-05-14T00:29:04.723Z,244.50
2023-05-14T00:30:04.730Z,240.79
2023-05-14T00:31:04.787Z,240.25
2023-05-14T00:32:04.736Z,242.44
2023-05-14T00:33:04.758Z,246.77
2023-05-14T00:34:04.762Z,244.11
2023-05-14T00:35:04.772Z,242.65
2023-05-14T00:36:04.780Z,244.03
2023-05-14T00:37:04.790Z,246.15
2023-05-14T00:38:04.750Z,243.54
2023-05-14T00:39:04.758Z,242.13
2023-05-14T00:40:04.764Z,243.22
2023-05-14T00:41:04.773Z,241.98
2023-05-14T00:42:04.712Z,239.73
2023-05-14T00:43:04.715Z,244.16
2023-05-14T00:44:04.704Z,243.80
2023-05-14T00:45:04.772Z,237.89
2023-05-14T00:46:04.730Z,240.75
2023-05-14T00:47:04.843Z,242.51
2023-05-14T00:48:04.794Z,242.59
2023-05-14T00:49:04.732Z,242.82
2023-05-14T00:50:04.751Z,240.28
2023-05-14T00:51:04.729Z,242.67
2023-05-14T00:52:04.741Z,242.26
2023-05-14T00:53:04.739Z,242.29
2023-05-14T00:54:04.748Z,241.72
2023-05-14T00:55:04.791Z,245.10
2023-05-14T00:56:04.772Z,242.21
2023-05-14T00:57:04.773Z,241.78
2023-05-14T00:58:04.778Z,245.08
2023-05-14T00:59:04.748Z,241.87
2023-05-14T01:00:04.790Z,243.40
2023-05-14T01:01:04.771Z,242.87
2023-05-14T01:02:04.746Z,241.53
2023-05-14T01:03:04.783Z,242.57
2023-05-14T01:04:04.780Z,243.00
2023-05-14T01:05:04.788Z,243.45
2023-05-14T01:06:04.782Z,241.84
2023-05-14T01:07:04.795Z,241.25
2023-05-14T01:08:04.731Z,241.49
2023-05-14T01:09:04.759Z,241.38
2023-05-14T01:10:04.749Z,241.44
2023-05-14T01:11:04.772Z,243.09
2023-05-14T01:12:04.783Z,240.49
2023-05-14T01:13:04.795Z,246.18
2023-05-14T01:14:04.781Z,245.85
2023-05-14T01:15:04.785Z,242.03
2023-05-14T01:16:04.846Z,243.10
2023-05-14T01:17:04.803Z,243.02
2023-05-14T01:18:04.845Z,244.64
2023-05-14T01:19:04.821Z,244.60
2023-05-14T01:20:04.767Z,244.14
2023-05-14T01:21:04.763Z,244.35
2023-05-14T01:22:04.772Z,242.44
2023-05-14T01:23:04.783Z,242.97
2023-05-14T01:24:04.853Z,243.14
2023-05-14T01:25:04.776Z,244.12
2023-05-14T01:26:04.793Z,244.53
2023-05-14T01:27:04.803Z,242.52
2023-05-14T01:28:04.820Z,242.76
2023-05-14T01:29:04.818Z,243.31
2023-05-14T01:30:04.789Z,240.00
2023-05-14T01:31:04.829Z,242.69
2023-05-14T01:32:04.891Z,244.30
2023-05-14T01:33:04.848Z,242.04
2023-05-14T01:34:04.812Z,242.14
2023-05-14T01:35:04.931Z,243.40
2023-05-14T01:36:04.784Z,239.35
2023-05-14T01:37:04.802Z,242.67
2023-05-14T01:38:04.810Z,243.11
2023-05-14T01:39:04.848Z,245.20
2023-05-14T01:40:04.834Z,243.99
2023-05-14T01:41:04.831Z,243.03
2023-05-14T01:42:04.839Z,243.40
2023-05-14T01:43:04.894Z,241.08
2023-05-14T01:44:04.853Z,242.74
2023-05-14T01:45:04.819Z,245.23
2023-05-14T01:46:04.956Z,245.47
2023-05-14T01:47:04.847Z,245.21
2023-05-14T01:48:04.930Z,241.81
2023-05-14T01:49:04.868Z,245.10
2023-05-14T01:50:04.857Z,243.65
2023-05-14T01:51:04.929Z,244.05
2023-05-14T01:52:04.889Z,242.92
2023-05-14T01:53:04.869Z,241.54
2023-05-14T01:54:04.892Z,241.36
2023-05-14T01:55:04.885Z,239.83
2023-05-14T01:56:04.919Z,242.68
2023-05-14T01:57:04.908Z,241.81
2023-05-14T01:58:04.938Z,242.47
2023-05-14T01:59:04.906Z,245.11
2023-05-14T02:00:04.936Z,245.89
2023-05-14T02:01:05.010Z,242.43
2023-05-14T02:02:04.996Z,241.09
2023-05-14T02:03:05.104Z,244.99
2023-05-14T02:04:05.093Z,241.01
2023-05-14T02:05:07.076Z,242.29
2023-05-14T02:06:05.038Z,243.58
2023-05-14T02:07:05.070Z,245.35
2023-05-14T02:08:05.085Z,245.63
2023-05-14T02:09:05.090Z,245.11
2023-05-14T02:10:05.117Z,239.89
2023-05-14T02:11:05.139Z,243.43
2023-05-14T02:12:05.116Z,243.06
2023-05-14T02:13:05.145Z,240.15
2023-05-14T02:14:05.202Z,244.21
2023-05-14T02:15:05.203Z,243.39
2023-05-14T02:16:05.242Z,244.13
2023-05-14T02:17:05.323Z,243.88
2023-05-14T02:18:05.304Z,242.91
2023-05-14T02:19:05.351Z,242.35
2023-05-14T02:20:05.265Z,241.74
2023-05-14T02:21:05.277Z,243.59
2023-05-14T02:22:05.284Z,245.19
2023-05-14T02:23:05.304Z,241.97
2023-05-14T02:24:05.306Z,241.69
2023-05-14T02:25:05.323Z,242.91
2023-05-14T02:26:05.310Z,243.20
2023-05-14T02:27:05.323Z,242.68
2023-05-14T02:28:05.421Z,243.65
2023-05-14T02:29:05.373Z,243.54
2023-05-14T02:30:05.404Z,242.96
2023-05-14T02:31:05.396Z,242.75
2023-05-14T02:32:05.391Z,242.66
2023-05-14T02:33:05.501Z,242.41
2023-05-14T02:34:05.389Z,242.01
2023-05-14T02:35:05.443Z,243.13
2023-05-14T02:36:05.452Z,244.74
2023-05-14T02:37:05.511Z,243.86
2023-05-14T02:38:05.470Z,245.23
2023-05-14T02:39:05.460Z,244.64
2023-05-14T02:40:05.480Z,242.21
2023-05-14T02:41:05.490Z,241.90
2023-05-14T02:42:05.525Z,241.06
2023-05-14T02:43:05.564Z,243.25
2023-05-14T02:44:05.526Z,242.45
2023-05-14T02:45:05.530Z,241.81
2023-05-14T02:46:05.540Z,243.23
2023-05-14T02:47:05.710Z,246.53
2023-05-14T02:48:05.727Z,241.39
2023-05-14T02:49:05.651Z,246.34
2023-05-14T02:50:05.660Z,244.35
2023-05-14T02:51:05.663Z,242.79
2023-05-14T02:52:05.689Z,243.83
2023-05-14T02:53:05.708Z,246.30
2023-05-14T02:54:05.721Z,243.76
2023-05-14T02:55:05.742Z,245.01
2023-05-14T02:56:05.738Z,244.12
2023-05-14T02:57:05.760Z,243.96
2023-05-14T02:58:05.767Z,241.09
2023-05-14T02:59:05.796Z,243.57
2023-05-14T03:00:05.813Z,243.94
2023-05-14T03:01:05.863Z,244.45
2023-05-14T03:02:05.898Z,243.73
2023-05-14T03:03:05.907Z,245.93
2023-05-14T03:04:05.871Z,245.42
2023-05-14T03:05:05.888Z,247.17
2023-05-14T03:06:05.937Z,245.21
2023-05-14T03:07:05.951Z,240.49
2023-05-14T03:08:05.977Z,239.77
2023-05-14T03:09:05.986Z,243.05
2023-05-14T03:10:06.002Z,242.10
2023-05-14T03:11:05.989Z,243.43
2023-05-14T03:12:06.005Z,243.05
2023-05-14T03:13:06.020Z,244.99
2023-05-14T03:14:06.026Z,246.05
2023-05-14T03:15:06.082Z,243.24
2023-05-14T03:16:06.085Z,245.94
2023-05-14T03:17:06.124Z,247.28
2023-05-14T03:18:06.218Z,245.63
2023-05-14T03:19:06.185Z,246.91
2023-05-14T03:20:06.163Z,243.41
2023-05-14T03:21:06.201Z,245.21
2023-05-14T03:22:06.198Z,241.39
2023-05-14T03:23:06.247Z,241.73
2023-05-14T03:24:06.192Z,244.34
2023-05-14T03:25:06.213Z,242.00
2023-05-14T03:26:06.263Z,244.07
2023-05-14T03:27:06.267Z,239.61
2023-05-14T03:28:06.320Z,240.84
2023-05-14T03:29:06.325Z,243.24
2023-05-14T03:30:06.319Z,239.96
2023-05-14T03:31:06.357Z,242.95
2023-05-14T03:32:06.322Z,243.64
2023-05-14T03:33:06.448Z,245.36
2023-05-14T03:34:06.373Z,244.37
2023-05-14T03:35:06.466Z,240.73
2023-05-14T03:36:06.452Z,244.30
2023-05-14T03:37:06.485Z,245.53
2023-05-14T03:38:06.481Z,244.19
2023-05-14T03:39:06.468Z,246.37
2023-05-14T03:40:06.517Z,242.58
2023-05-14T03:41:06.580Z,244.15
2023-05-14T03:42:06.569Z,245.57
2023-05-14T03:43:06.608Z,244.35
2023-05-14T03:44:06.600Z,243.99
2023-05-14T03:45:06.649Z,245.22
2023-05-14T03:46:06.646Z,244.29
2023-05-14T03:47:06.658Z,242.58
2023-05-14T03:48:06.782Z,242.57
2023-05-14T03:49:06.795Z,243.33
2023-05-14T03:50:06.693Z,245.71
2023-05-14T03:51:06.766Z,246.23
2023-05-14T03:52:06.771Z,243.53
2023-05-14T03:53:06.789Z,246.24
2023-05-14T03:54:06.784Z,244.80
2023-05-14T03:55:06.775Z,243.26
2023-05-14T03:56:06.816Z,244.00
2023-05-14T03:57:06.871Z,243.04
2023-05-14T03:58:06.879Z,243.97
2023-05-14T03:59:06.879Z,244.14
2023-05-14T04:00:06.892Z,244.71
2023-05-14T04:01:06.891Z,239.62
2023-05-14T04:02:06.947Z,242.38
2023-05-14T04:03:07.121Z,242.47
2023-05-14T04:04:07.139Z,243.22
2023-05-14T04:05:06.979Z,244.51
2023-05-14T04:06:07.019Z,244.50
2023-05-14T04:07:07.068Z,243.96
2023-05-14T04:08:07.078Z,242.62
2023-05-14T04:09:07.118Z,244.37
2023-05-14T04:10:07.089Z,245.58
2023-05-14T04:11:07.136Z,243.71
2023-05-14T04:12:07.183Z,242.64
2023-05-14T04:13:07.138Z,244.00
2023-05-14T04:14:07.165Z,246.03
2023-05-14T04:15:07.193Z,243.75
2023-05-14T04:16:07.269Z,243.14
2023-05-14T04:17:07.244Z,243.68
2023-05-14T04:18:07.358Z,245.04
2023-05-14T04:19:07.274Z,245.00
2023-05-14T04:20:07.286Z,245.74
2023-05-14T04:21:07.312Z,244.21
2023-05-14T04:22:07.354Z,245.28
2023-05-14T04:23:07.306Z,243.45
2023-05-14T04:24:07.324Z,242.71
2023-05-14T04:25:07.415Z,242.63
2023-05-14T04:26:07.378Z,243.55
2023-05-14T04:27:07.426Z,244.52
2023-05-14T04:28:07.413Z,240.90
2023-05-14T04:29:07.441Z,242.66
2023-05-14T04:30:07.476Z,243.94
2023-05-14T04:31:07.480Z,243.31
2023-05-14T04:32:07.617Z,242.37
2023-05-14T04:33:07.612Z,243.08
2023-05-14T04:34:07.556Z,244.20
2023-05-14T04:35:07.543Z,243.06
2023-05-14T04:36:07.578Z,240.81
2023-05-14T04:37:07.622Z,243.63
2023-05-14T04:38:07.628Z,241.67
2023-05-14T04:39:07.660Z,241.96
2023-05-14T04:40:07.668Z,244.82
2023-05-14T04:41:07.675Z,240.23
2023-05-14T04:42:07.711Z,243.94
2023-05-14T04:43:07.767Z,242.45
2023-05-14T04:44:07.766Z,242.40
2023-05-14T04:45:07.766Z,241.28
2023-05-14T04:46:07.861Z,241.99
2023-05-14T04:47:07.808Z,244.28
2023-05-14T04:48:07.915Z,242.43
2023-05-14T04:49:07.878Z,246.85
2023-05-14T04:50:07.882Z,242.69
2023-05-14T04:51:07.884Z,243.92
2023-05-14T04:52:07.921Z,244.77
2023-05-14T04:53:07.925Z,243.39
2023-05-14T04:54:08.044Z,244.71
2023-05-14T04:55:08.012Z,242.47
2023-05-14T04:56:08.049Z,243.80
2023-05-14T04:57:08.089Z,243.66
2023-05-14T04:58:08.065Z,242.12
2023-05-14T04:59:08.108Z,243.73
2023-05-14T05:00:08.115Z,244.47
2023-05-14T05:01:08.263Z,244.13
2023-05-14T05:02:08.208Z,244.49
2023-05-14T05:03:08.280Z,243.59
2023-05-14T05:04:08.299Z,245.91
2023-05-14T05:05:08.297Z,243.73
2023-05-14T05:06:08.328Z,243.45
2023-05-14T05:07:08.300Z,240.83
2023-05-14T05:08:08.359Z,247.67
2023-05-14T05:09:08.355Z,242.45
2023-05-14T05:10:08.360Z,242.57
2023-05-14T05:11:08.441Z,242.65
2023-05-14T05:12:08.460Z,243.64
2023-05-14T05:13:08.486Z,243.36
2023-05-14T05:14:08.487Z,243.65
2023-05-14T05:15:08.555Z,242.16
2023-05-14T05:16:08.600Z,241.23
2023-05-14T05:17:08.555Z,243.36
2023-05-14T05:18:08.583Z,245.51
2023-05-14T05:19:08.716Z,241.90
2023-05-14T05:20:08.669Z,243.77
2023-05-14T05:21:08.675Z,241.85
2023-05-14T05:22:08.644Z,240.15
2023-05-14T05:23:08.669Z,243.58
2023-05-14T05:24:08.730Z,241.11
2023-05-14T05:25:08.726Z,245.46
2023-05-14T05:26:08.731Z,242.42
2023-05-14T05:27:08.806Z,243.55
2023-05-14T05:28:08.794Z,238.82
2023-05-14T05:29:08.815Z,244.85
2023-05-14T05:30:08.855Z,246.08
2023-05-14T05:31:08.873Z,242.08
2023-05-14T05:32:08.852Z,242.75
2023-05-14T05:33:08.915Z,241.59
2023-05-14T05:34:08.922Z,241.17
2023-05-14T05:35:08.975Z,242.91
2023-05-14T05:36:08.976Z,243.73
2023-05-14T05:37:08.968Z,240.94
2023-05-14T05:38:09.000Z,242.55
2023-05-14T05:39:09.076Z,242.81
2023-05-14T05:40:09.177Z,240.81
2023-05-14T05:41:09.085Z,242.31
2023-05-14T05:42:09.111Z,242.53
2023-05-14T05:43:09.117Z,242.90
2023-05-14T05:44:09.120Z,243.25
2023-05-14T05:45:09.181Z,243.07
2023-05-14T05:46:09.213Z,243.22
2023-05-14T05:47:09.253Z,244.01
2023-05-14T05:48:09.268Z,246.27
2023-05-14T05:49:09.268Z,242.64
2023-05-14T05:50:09.312Z,241.57
2023-05-14T05:51:09.300Z,243.49
2023-05-14T05:52:09.344Z,240.92
2023-05-14T05:53:09.384Z,244.83
2023-05-14T05:54:09.401Z,242.03
2023-05-14T05:55:09.451Z,243.52
2023-05-14T05:56:09.440Z,243.76
2023-05-14T05:57:09.441Z,242.83
2023-05-14T05:58:09.540Z,239.93
2023-05-14T05:59:09.497Z,241.00
2023-05-14T06:00:09.538Z,243.99
2023-05-14T06:01:09.546Z,242.86
2023-05-14T06:02:09.699Z,242.96
2023-05-14T06:03:09.688Z,243.70
2023-05-14T06:04:09.609Z,242.82
2023-05-14T06:05:09.727Z,241.35
2023-05-14T06:06:09.681Z,246.56
2023-05-14T06:07:09.724Z,246.62
2023-05-14T06:08:09.739Z,242.67
2023-05-14T06:09:09.805Z,239.50
2023-05-14T06:10:09.817Z,241.48
2023-05-14T06:11:09.842Z,246.63
2023-05-14T06:12:09.869Z,243.72
2023-05-14T06:13:09.915Z,243.96
2023-05-14T06:14:09.901Z,245.50
2023-05-14T06:15:09.905Z,245.52
2023-05-14T06:16:10.015Z,245.83
2023-05-14T06:17:09.961Z,242.45
2023-05-14T06:18:10.043Z,244.92
2023-05-14T06:19:10.106Z,243.22
2023-05-14T06:20:10.058Z,241.15
2023-05-14T06:21:10.069Z,242.07
2023-05-14T06:22:10.107Z,243.28
2023-05-14T06:23:10.143Z,244.21
2023-05-14T06:24:10.779Z,243.86
2023-05-14T06:25:10.156Z,243.99
2023-05-14T06:26:10.202Z,242.50
2023-05-14T06:27:10.201Z,241.47
2023-05-14T06:28:10.211Z,243.50
2023-05-14T06:29:10.220Z,244.47
2023-05-14T06:30:10.309Z,240.99
2023-05-14T06:31:10.277Z,242.83
2023-05-14T06:32:10.397Z,243.32
2023-05-14T06:33:10.398Z,244.03
2023-05-14T06:34:10.365Z,242.83
2023-05-14T06:35:10.367Z,244.88
2023-05-14T06:36:10.422Z,244.61
2023-05-14T06:37:10.416Z,245.65
2023-05-14T06:38:10.450Z,243.45
2023-05-14T06:39:10.442Z,246.15
2023-05-14T06:40:10.467Z,243.03
2023-05-14T06:41:10.489Z,243.17
2023-05-14T06:42:10.539Z,243.91
2023-05-14T06:43:10.540Z,245.86
2023-05-14T06:44:10.601Z,243.20
2023-05-14T06:45:10.614Z,245.88
2023-05-14T06:46:10.608Z,245.17
2023-05-14T06:47:10.620Z,244.10
2023-05-14T06:48:10.726Z,242.81
2023-05-14T06:49:10.798Z,242.61
2023-05-14T06:50:10.974Z,242.23
2023-05-14T06:51:10.739Z,243.77
2023-05-14T06:52:10.744Z,244.85
2023-05-14T06:53:10.855Z,244.02
2023-05-14T06:54:10.829Z,242.65
2023-05-14T06:55:10.764Z,242.42
2023-05-14T06:56:10.786Z,243.13
2023-05-14T06:57:10.804Z,244.19
2023-05-14T06:58:10.918Z,245.50
2023-05-14T06:59:10.890Z,245.26
2023-05-14T07:00:10.904Z,243.24
2023-05-14T07:01:10.934Z,246.94
2023-05-14T07:02:10.927Z,245.69
2023-05-14T07:03:10.999Z,244.70
2023-05-14T07:04:11.040Z,245.90
2023-05-14T07:05:11.020Z,246.87
2023-05-14T07:06:13.458Z,247.32
2023-05-14T07:07:11.175Z,246.77
2023-05-14T07:08:11.202Z,245.47
2023-05-14T07:09:11.264Z,245.53
2023-05-14T07:10:11.277Z,243.01
2023-05-14T07:11:11.274Z,244.77
2023-05-14T07:12:11.269Z,243.34
2023-05-14T07:13:11.339Z,245.45
2023-05-14T07:14:12.324Z,248.82
2023-05-14T07:15:11.325Z,244.86
2023-05-14T07:16:11.362Z,248.11
2023-05-14T07:17:11.373Z,245.32
2023-05-14T07:18:11.440Z,243.67
2023-05-14T07:19:11.580Z,245.02
2023-05-14T07:20:11.462Z,244.29
2023-05-14T07:21:11.438Z,244.58
2023-05-14T07:22:11.478Z,243.57
2023-05-14T07:23:11.443Z,246.63
2023-05-14T07:24:11.475Z,246.44
2023-05-14T07:25:11.466Z,245.82
2023-05-14T07:26:11.497Z,244.98
2023-05-14T07:27:11.524Z,243.67
2023-05-14T07:28:11.526Z,244.63
2023-05-14T07:29:11.566Z,245.38
2023-05-14T07:30:11.550Z,245.69
2023-05-14T07:31:11.615Z,246.44
2023-05-14T07:32:13.938Z,246.56
2023-05-14T07:33:11.598Z,247.28
2023-05-14T07:34:11.585Z,241.76
2023-05-14T07:35:11.571Z,241.01
2023-05-14T07:36:11.566Z,243.68
2023-05-14T07:37:11.588Z,239.72
2023-05-14T07:38:11.541Z,239.97
2023-05-14T07:39:11.530Z,240.31
2023-05-14T07:40:11.550Z,242.40
2023-05-14T07:41:11.515Z,242.55
2023-05-14T07:43:11.482Z,240.58
2023-05-14T07:44:11.493Z,239.96
2023-05-14T07:45:11.486Z,240.27
2023-05-14T07:46:11.480Z,239.94
2023-05-14T07:47:11.619Z,240.31
2023-05-14T07:48:11.545Z,239.65
2023-05-14T07:49:11.498Z,240.72
2023-05-14T07:50:11.429Z,239.72
2023-05-14T07:51:11.444Z,240.24
2023-05-14T07:52:11.407Z,240.07
2023-05-14T07:53:11.419Z,238.50
2023-05-14T07:54:11.447Z,240.18
2023-05-14T07:55:11.410Z,242.24
2023-05-14T07:56:11.405Z,242.54
2023-05-14T07:57:11.376Z,238.82
2023-05-14T07:58:11.396Z,240.12
2023-05-14T07:59:11.400Z,236.05
2023-05-14T08:00:11.359Z,236.80
2023-05-14T08:01:11.336Z,236.84
2023-05-14T08:02:11.385Z,239.76
2023-05-14T08:03:11.432Z,236.93
2023-05-14T08:04:11.405Z,236.35
2023-05-14T08:05:11.338Z,237.84
2023-05-14T08:06:11.333Z,237.00
2023-05-14T08:07:11.307Z,236.15
2023-05-14T08:08:11.320Z,240.95
2023-05-14T08:09:11.327Z,238.98
2023-05-14T08:10:11.300Z,237.42
2023-05-14T08:11:11.345Z,241.23
2023-05-14T08:12:11.308Z,239.49
2023-05-14T08:13:11.298Z,238.25
2023-05-14T08:14:11.318Z,240.93
2023-05-14T08:15:11.251Z,240.63
2023-05-14T08:16:11.246Z,240.75
2023-05-14T08:17:11.375Z,241.35
2023-05-14T08:18:11.255Z,241.26
2023-05-14T08:19:11.325Z,239.55
2023-05-14T08:20:11.233Z,238.03
2023-05-14T08:21:11.202Z,241.92
2023-05-14T08:22:11.204Z,240.36
2023-05-14T08:23:11.223Z,241.60
2023-05-14T08:24:11.200Z,239.60
2023-05-14T08:25:11.211Z,240.07
2023-05-14T08:26:11.166Z,238.12
2023-05-14T08:27:11.178Z,238.25
2023-05-14T08:28:11.186Z,239.75
2023-05-14T08:29:12.299Z,241.11
2023-05-14T08:30:11.142Z,243.72
2023-05-14T08:31:11.343Z,240.07
2023-05-14T08:32:22.180Z,237.97
2023-05-14T08:33:12.180Z,238.36
2023-05-14T08:34:11.123Z,238.71
2023-05-14T08:35:11.129Z,238.91
2023-05-14T08:36:11.154Z,240.48
2023-05-14T08:37:11.115Z,239.71
2023-05-14T08:38:11.113Z,237.49
2023-05-14T08:39:11.109Z,242.00
2023-05-14T08:40:11.096Z,239.74
2023-05-14T08:41:11.083Z,239.02
2023-05-14T08:42:11.076Z,243.03
2023-05-14T08:43:11.098Z,239.54
2023-05-14T08:44:11.065Z,242.92
2023-05-14T08:45:11.071Z,237.98
2023-05-14T08:46:11.042Z,237.14
2023-05-14T08:47:11.035Z,238.46
2023-05-14T08:48:11.203Z,236.14
2023-05-14T08:49:11.064Z,240.13
2023-05-14T08:50:11.800Z,243.41
2023-05-14T08:51:10.998Z,239.14
2023-05-14T08:52:11.011Z,239.17
2023-05-14T08:53:10.981Z,241.55
2023-05-14T08:54:11.013Z,242.00
2023-05-14T08:55:10.962Z,241.94
2023-05-14T08:56:10.956Z,243.77
2023-05-14T08:57:10.977Z,243.31
2023-05-14T08:58:11.001Z,240.70
2023-05-14T08:59:10.936Z,243.08
2023-05-14T09:00:10.925Z,242.23
2023-05-14T09:01:10.930Z,240.64
2023-05-14T09:02:11.060Z,242.24
2023-05-14T09:03:10.933Z,244.87
2023-05-14T09:04:11.081Z,243.06
2023-05-14T09:05:10.923Z,242.24
2023-05-14T09:06:10.895Z,242.49
2023-05-14T09:07:10.885Z,240.74
2023-05-14T09:08:10.993Z,239.99
2023-05-14T09:09:10.900Z,244.09
2023-05-14T09:10:10.852Z,243.30
2023-05-14T09:11:10.855Z,242.73
2023-05-14T09:12:10.823Z,240.60
2023-05-14T09:13:10.888Z,240.50
2023-05-14T09:14:10.851Z,243.63
2023-05-14T09:15:10.832Z,240.78
2023-05-14T09:16:10.879Z,243.46
2023-05-14T09:17:10.871Z,244.19
2023-05-14T09:18:10.865Z,242.67
2023-05-14T09:19:10.965Z,240.56
2023-05-14T09:20:10.821Z,240.89
2023-05-14T09:21:10.789Z,243.16
2023-05-14T09:22:10.750Z,241.69
2023-05-14T09:23:10.757Z,244.30
2023-05-14T09:24:10.788Z,242.65
2023-05-14T09:25:10.815Z,241.82
2023-05-14T09:26:10.806Z,241.95
2023-05-14T09:27:10.826Z,244.30
2023-05-14T09:28:10.833Z,242.56
2023-05-14T09:29:10.916Z,242.16
2023-05-14T09:30:10.978Z,243.44
2023-05-14T09:31:10.972Z,241.48
2023-05-14T09:32:10.934Z,244.54
2023-05-14T09:33:11.027Z,241.85
2023-05-14T09:34:11.013Z,245.40
2023-05-14T09:35:11.037Z,244.15
2023-05-14T09:36:11.124Z,243.95
2023-05-14T09:37:11.107Z,246.04
2023-05-14T09:38:11.146Z,246.23
2023-05-14T09:39:11.186Z,244.27
2023-05-14T09:40:11.413Z,245.90
2023-05-14T09:41:11.246Z,245.21
2023-05-14T09:42:11.312Z,243.34
2023-05-14T09:43:11.345Z,246.74
2023-05-14T09:44:11.406Z,244.92
2023-05-14T09:45:11.417Z,243.52
2023-05-14T09:46:11.439Z,246.48
2023-05-14T09:47:11.559Z,245.46
2023-05-14T09:48:11.608Z,245.51
2023-05-14T09:49:11.587Z,242.81
2023-05-14T09:50:11.604Z,243.25
2023-05-14T09:51:11.672Z,242.50
2023-05-14T09:52:11.700Z,244.01
2023-05-14T09:53:11.729Z,243.88
2023-05-14T09:54:11.892Z,247.32
2023-05-14T09:55:11.805Z,243.35
2023-05-14T09:56:11.942Z,247.06
2023-05-14T09:57:11.942Z,246.59
2023-05-14T09:58:11.992Z,245.00
2023-05-14T09:59:12.048Z,245.05
2023-05-14T10:00:12.087Z,245.72
2023-05-14T10:01:12.178Z,244.87
2023-05-14T10:02:12.222Z,242.43
2023-05-14T10:03:12.242Z,244.18
2023-05-14T10:04:12.318Z,244.76
2023-05-14T10:05:12.349Z,246.05
2023-05-14T10:06:12.418Z,245.08
2023-05-14T10:07:12.480Z,243.65
2023-05-14T10:08:12.527Z,249.13
2023-05-14T10:09:12.557Z,248.03
2023-05-14T10:10:12.592Z,246.04
2023-05-14T10:11:12.662Z,248.49
2023-05-14T10:12:12.689Z,244.03
2023-05-14T10:13:12.767Z,244.33
2023-05-14T10:14:12.833Z,246.01
2023-05-14T10:15:12.886Z,248.77
2023-05-14T10:16:12.949Z,244.72
2023-05-14T10:17:13.184Z,246.15
2023-05-14T10:18:13.092Z,246.76
2023-05-14T10:19:13.276Z,244.90
2023-05-14T10:20:13.206Z,244.56
2023-05-14T10:21:13.246Z,247.31
2023-05-14T10:22:13.307Z,245.78
2023-05-14T10:23:13.423Z,243.57
2023-05-14T10:24:13.461Z,244.84
2023-05-14T10:25:13.532Z,245.94
2023-05-14T10:26:13.545Z,244.50
2023-05-14T10:27:13.633Z,246.11
2023-05-14T10:28:13.658Z,244.84
2023-05-14T10:29:13.727Z,243.96
2023-05-14T10:30:13.829Z,244.40
2023-05-14T10:31:13.873Z,245.98
2023-05-14T10:32:13.924Z,245.67
2023-05-14T10:33:14.046Z,245.70
2023-05-14T10:34:14.035Z,245.56
2023-05-14T10:35:14.080Z,248.45
2023-05-14T10:36:14.129Z,248.43
2023-05-14T10:37:14.200Z,249.52
2023-05-14T10:38:14.283Z,246.39
2023-05-14T10:39:14.315Z,244.14
2023-05-14T10:40:14.407Z,246.61
2023-05-14T10:41:14.461Z,249.96
2023-05-14T10:42:14.510Z,246.11
2023-05-14T10:43:14.751Z,246.26
2023-05-14T10:44:14.652Z,245.69
2023-05-14T10:45:14.754Z,245.71
2023-05-14T10:46:14.834Z,247.17
2023-05-14T10:47:14.836Z,248.74
2023-05-14T10:48:14.968Z,246.32
2023-05-14T10:49:14.971Z,243.90
2023-05-14T10:50:15.019Z,246.86
2023-05-14T10:51:15.921Z,246.20
2023-05-14T10:52:15.140Z,247.33
2023-05-14T10:53:15.204Z,245.83
2023-05-14T10:54:15.276Z,247.06
2023-05-14T10:55:15.381Z,247.97
2023-05-14T10:56:15.379Z,247.36
2023-05-14T10:57:15.416Z,243.37
2023-05-14T10:58:15.494Z,246.33
2023-05-14T10:59:15.529Z,246.47
2023-05-14T11:00:15.656Z,244.83
2023-05-14T11:01:15.642Z,245.50
2023-05-14T11:02:15.743Z,246.68
2023-05-14T11:03:15.850Z,246.58
2023-05-14T11:04:15.908Z,244.30
2023-05-14T11:05:16.189Z,245.74
2023-05-14T11:06:16.104Z,247.57
2023-05-14T11:07:16.046Z,245.99
2023-05-14T11:08:16.107Z,246.20
2023-05-14T11:09:16.153Z,245.83
2023-05-14T11:10:16.230Z,249.05
2023-05-14T11:11:16.271Z,245.50
2023-05-14T11:12:16.363Z,246.78
2023-05-14T11:13:16.406Z,247.43
2023-05-14T11:14:16.451Z,245.62
2023-05-14T11:15:16.528Z,245.08
2023-05-14T11:16:23.328Z,245.43
2023-05-14T11:17:17.632Z,245.67
2023-05-14T11:18:16.590Z,246.17
2023-05-14T11:19:16.739Z,246.97
2023-05-14T11:20:16.610Z,246.90
2023-05-14T11:21:16.602Z,247.52
2023-05-14T11:22:16.559Z,248.70
2023-05-14T11:23:16.524Z,245.84
2023-05-14T11:24:16.590Z,248.32
2023-05-14T11:25:16.504Z,248.01
2023-05-14T11:26:16.835Z,246.62
2023-05-14T11:27:16.681Z,245.44
2023-05-14T11:28:16.659Z,246.58
2023-05-14T11:29:16.737Z,247.17
2023-05-14T11:30:16.871Z,248.31
2023-05-14T11:31:16.864Z,247.18
2023-05-14T11:32:16.925Z,249.27
2023-05-14T11:33:17.016Z,246.31
2023-05-14T11:34:17.017Z,248.52
2023-05-14T11:35:17.098Z,247.72
2023-05-14T11:36:17.159Z,247.69
2023-05-14T11:37:17.213Z,243.88
2023-05-14T11:38:17.234Z,242.11
2023-05-14T11:39:17.313Z,246.52
2023-05-14T11:40:17.429Z,245.29
2023-05-14T11:41:17.449Z,244.48
2023-05-14T11:42:17.505Z,244.36
2023-05-14T11:43:17.580Z,245.52
2023-05-14T11:44:18.452Z,247.61
2023-05-14T11:45:17.686Z,245.51
2023-05-14T11:46:17.806Z,245.33
2023-05-14T11:47:17.786Z,244.90
2023-05-14T11:48:17.849Z,243.63
2023-05-14T11:49:17.926Z,244.79
2023-05-14T11:50:18.017Z,244.17
2023-05-14T11:51:18.073Z,247.64
2023-05-14T11:52:18.107Z,246.78
2023-05-14T11:53:18.196Z,248.11
2023-05-14T11:54:18.208Z,242.78
2023-05-14T11:55:18.287Z,245.89
2023-05-14T11:56:18.340Z,247.15
2023-05-14T11:57:18.377Z,246.43
2023-05-14T11:58:18.470Z,247.13
2023-05-14T11:59:18.477Z,244.15
2023-05-14T12:00:18.561Z,246.10
2023-05-14T12:01:18.607Z,245.00
2023-05-14T12:02:18.741Z,244.52
2023-05-14T12:03:18.948Z,246.07
2023-05-14T12:04:18.924Z,244.53
2023-05-14T12:05:18.844Z,245.67
2023-05-14T12:06:18.934Z,245.65
2023-05-14T12:07:18.958Z,244.29
2023-05-14T12:08:19.009Z,247.82
2023-05-14T12:09:19.121Z,243.91
2023-05-14T12:10:19.133Z,247.23
2023-05-14T12:11:19.198Z,247.29
2023-05-14T12:12:19.281Z,246.54
2023-05-14T12:13:19.353Z,247.36
2023-05-14T12:14:19.399Z,247.45
2023-05-14T12:15:19.553Z,245.50
2023-05-14T12:16:19.624Z,243.71
2023-05-14T12:17:19.667Z,247.98
2023-05-14T12:18:24.583Z,245.42
2023-05-14T12:19:20.670Z,245.72
2023-05-14T12:20:19.625Z,245.77
2023-05-14T12:21:19.617Z,246.52
2023-05-14T12:22:19.615Z,246.18
2023-05-14T12:23:19.569Z,251.47
2023-05-14T12:24:19.551Z,245.62
2023-05-14T12:25:19.604Z,245.20
2023-05-14T12:26:19.591Z,245.05
2023-05-14T12:27:19.538Z,246.81
2023-05-14T12:28:19.551Z,244.49
2023-05-14T12:29:19.663Z,245.26